sensor_id;sensor_type;location;lat;lon;timestamp;P1;durP1;ratioP1;P2;durP2;ratioP2
7195;SDS011;3639;51.308;5.624;2022-09-21T00:00:35;4.20;;;3.27;;
7195;SDS011;3639;51.308;5.624;2022-09-21T00:03:02;4.20;;;3.03;;
7195;SDS011;3639;51.308;5.624;2022-09-21T00:05:29;5.60;;;3.10;;
7195;SDS011;3639;51.308;5.624;2022-09-21T00:07:58;3.93;;;2.90;;
7195;SDS011;3639;51.308;5.624;2022-09-21T00:10:24;3.53;;;2.83;;
7195;SDS011;3639;51.308;5.624;2022-09-21T00:12:51;3.57;;;3.27;;
7195;SDS011;3639;51.308;5.624;2022-09-21T00:15:17;6.60;;;3.37;;
7195;SDS011;3639;51.308;5.624;2022-09-21T00:17:43;5.53;;;3.30;;
7195;SDS011;3639;51.308;5.624;2022-09-21T00:20:10;3.67;;;3.10;;
7195;SDS011;3639;51.308;5.624;2022-09-21T00:22:36;3.37;;;3.07;;
7195;SDS011;3639;51.308;5.624;2022-09-21T00:25:02;4.23;;;3.13;;
7195;SDS011;3639;51.308;5.624;2022-09-21T00:27:28;4.70;;;3.00;;
7195;SDS011;3639;51.308;5.624;2022-09-21T00:29:59;4.37;;;2.77;;
7195;SDS011;3639;51.308;5.624;2022-09-21T00:32:31;6.07;;;3.07;;
7195;SDS011;3639;51.308;5.624;2022-09-21T00:34:59;3.77;;;2.87;;
7195;SDS011;3639;51.308;5.624;2022-09-21T00:37:27;4.23;;;2.87;;
7195;SDS011;3639;51.308;5.624;2022-09-21T00:39:53;3.50;;;3.00;;
7195;SDS011;3639;51.308;5.624;2022-09-21T00:42:29;3.83;;;2.97;;
7195;SDS011;3639;51.308;5.624;2022-09-21T00:44:57;3.97;;;2.93;;
7195;SDS011;3639;51.308;5.624;2022-09-21T00:47:39;6.13;;;3.03;;
7195;SDS011;3639;51.308;5.624;2022-09-21T00:50:08;6.90;;;3.37;;
7195;SDS011;3639;51.308;5.624;2022-09-21T00:52:39;4.97;;;3.10;;
7195;SDS011;3639;51.308;5.624;2022-09-21T00:55:20;2.93;;;2.73;;
7195;SDS011;3639;51.308;5.624;2022-09-21T00:57:47;8.70;;;3.40;;
7195;SDS011;3639;51.308;5.624;2022-09-21T01:00:19;8.97;;;3.47;;
7195;SDS011;3639;51.308;5.624;2022-09-21T01:02:45;7.17;;;2.93;;
7195;SDS011;3639;51.308;5.624;2022-09-21T01:05:11;2.63;;;2.43;;
7195;SDS011;3639;51.308;5.624;2022-09-21T01:07:39;2.97;;;2.67;;
7195;SDS011;3639;51.308;5.624;2022-09-21T01:10:08;3.30;;;3.00;;
7195;SDS011;3639;51.308;5.624;2022-09-21T01:15:19;3.17;;;2.73;;
7195;SDS011;3639;51.308;5.624;2022-09-21T01:18:11;5.60;;;2.73;;
7195;SDS011;3639;51.308;5.624;2022-09-21T01:34:44;3.30;;;3.00;;
7195;SDS011;3639;51.308;5.624;2022-09-21T01:37:15;4.43;;;2.97;;
7195;SDS011;3639;51.308;5.624;2022-09-21T01:39:49;2.90;;;2.60;;
7195;SDS011;3639;51.308;5.624;2022-09-21T01:42:19;9.17;;;3.10;;
7195;SDS011;3639;51.308;5.624;2022-09-21T01:44:47;6.63;;;2.47;;
7195;SDS011;3639;51.308;5.624;2022-09-21T01:47:14;3.97;;;3.17;;
7195;SDS011;3639;51.308;5.624;2022-09-21T01:49:44;6.23;;;3.37;;
7195;SDS011;3639;51.308;5.624;2022-09-21T01:54:53;3.33;;;3.00;;
7195;SDS011;3639;51.308;5.624;2022-09-21T01:57:33;6.07;;;3.70;;
7195;SDS011;3639;51.308;5.624;2022-09-21T02:00:23;3.60;;;3.30;;
7195;SDS011;3639;51.308;5.624;2022-09-21T02:02:50;4.70;;;3.03;;
7195;SDS011;3639;51.308;5.624;2022-09-21T02:05:24;3.87;;;3.00;;
7195;SDS011;3639;51.308;5.624;2022-09-21T02:07:52;4.13;;;3.70;;
7195;SDS011;3639;51.308;5.624;2022-09-21T02:10:21;6.43;;;3.80;;
7195;SDS011;3639;51.308;5.624;2022-09-21T02:12:54;3.53;;;3.07;;
7195;SDS011;3639;51.308;5.624;2022-09-21T02:15:25;3.50;;;3.10;;
7195;SDS011;3639;51.308;5.624;2022-09-21T02:18:06;3.80;;;3.47;;
7195;SDS011;3639;51.308;5.624;2022-09-21T02:20:40;3.97;;;2.90;;
7195;SDS011;3639;51.308;5.624;2022-09-21T02:23:22;7.07;;;3.23;;
7195;SDS011;3639;51.308;5.624;2022-09-21T02:25:56;5.00;;;3.37;;
7195;SDS011;3639;51.308;5.624;2022-09-21T02:31:10;8.83;;;3.30;;
7195;SDS011;3639;51.308;5.624;2022-09-21T02:33:46;5.00;;;3.10;;
7195;SDS011;3639;51.308;5.624;2022-09-21T02:36:24;5.73;;;3.40;;
7195;SDS011;3639;51.308;5.624;2022-09-21T02:39:07;3.37;;;3.07;;
7195;SDS011;3639;51.308;5.624;2022-09-21T02:41:40;4.63;;;3.50;;
7195;SDS011;3639;51.308;5.624;2022-09-21T02:44:19;4.20;;;3.00;;
7195;SDS011;3639;51.308;5.624;2022-09-21T02:47:41;6.80;;;3.57;;
7195;SDS011;3639;51.308;5.624;2022-09-21T02:49:45;4.27;;;3.60;;
7195;SDS011;3639;51.308;5.624;2022-09-21T02:52:32;5.37;;;3.90;;
7195;SDS011;3639;51.308;5.624;2022-09-21T02:54:59;11.97;;;3.53;;
7195;SDS011;3639;51.308;5.624;2022-09-21T02:57:26;5.30;;;3.27;;
7195;SDS011;3639;51.308;5.624;2022-09-21T02:59:52;4.43;;;3.30;;
7195;SDS011;3639;51.308;5.624;2022-09-21T03:02:18;5.77;;;3.23;;
7195;SDS011;3639;51.308;5.624;2022-09-21T03:04:44;4.33;;;2.97;;
7195;SDS011;3639;51.308;5.624;2022-09-21T03:07:12;5.50;;;3.93;;
7195;SDS011;3639;51.308;5.624;2022-09-21T03:09:39;6.57;;;3.77;;
7195;SDS011;3639;51.308;5.624;2022-09-21T03:12:05;3.67;;;3.17;;
7195;SDS011;3639;51.308;5.624;2022-09-21T03:14:30;6.00;;;3.53;;
7195;SDS011;3639;51.308;5.624;2022-09-21T03:16:57;3.50;;;3.20;;
7195;SDS011;3639;51.308;5.624;2022-09-21T03:19:23;4.50;;;3.53;;
7195;SDS011;3639;51.308;5.624;2022-09-21T03:21:49;3.57;;;3.27;;
7195;SDS011;3639;51.308;5.624;2022-09-21T03:24:15;2.93;;;2.73;;
7195;SDS011;3639;51.308;5.624;2022-09-21T03:27:01;7.33;;;3.30;;
7195;SDS011;3639;51.308;5.624;2022-09-21T03:29:26;3.97;;;3.43;;
7195;SDS011;3639;51.308;5.624;2022-09-21T03:31:52;6.67;;;3.30;;
7195;SDS011;3639;51.308;5.624;2022-09-21T03:34:18;6.37;;;3.57;;
7195;SDS011;3639;51.308;5.624;2022-09-21T03:36:45;3.70;;;3.20;;
7195;SDS011;3639;51.308;5.624;2022-09-21T03:39:12;4.07;;;3.20;;
7195;SDS011;3639;51.308;5.624;2022-09-21T03:41:38;3.27;;;2.97;;
7195;SDS011;3639;51.308;5.624;2022-09-21T03:44:04;4.93;;;3.63;;
7195;SDS011;3639;51.308;5.624;2022-09-21T03:46:29;6.97;;;3.00;;
7195;SDS011;3639;51.308;5.624;2022-09-21T03:48:56;3.63;;;3.30;;
7195;SDS011;3639;51.308;5.624;2022-09-21T03:51:22;4.67;;;3.47;;
7195;SDS011;3639;51.308;5.624;2022-09-21T03:53:47;3.67;;;3.37;;
7195;SDS011;3639;51.308;5.624;2022-09-21T03:56:13;5.33;;;3.67;;
7195;SDS011;3639;51.308;5.624;2022-09-21T03:58:38;3.47;;;3.17;;
7195;SDS011;3639;51.308;5.624;2022-09-21T04:01:05;4.73;;;3.13;;
7195;SDS011;3639;51.308;5.624;2022-09-21T04:03:31;8.63;;;3.50;;
7195;SDS011;3639;51.308;5.624;2022-09-21T04:05:56;3.67;;;2.77;;
7195;SDS011;3639;51.308;5.624;2022-09-21T04:08:22;3.00;;;2.77;;
7195;SDS011;3639;51.308;5.624;2022-09-21T04:10:48;3.70;;;3.40;;
7195;SDS011;3639;51.308;5.624;2022-09-21T04:13:13;3.77;;;2.90;;
7195;SDS011;3639;51.308;5.624;2022-09-21T04:15:39;3.53;;;3.23;;
7195;SDS011;3639;51.308;5.624;2022-09-21T04:18:04;3.20;;;3.00;;
7195;SDS011;3639;51.308;5.624;2022-09-21T04:20:30;6.57;;;3.33;;
7195;SDS011;3639;51.308;5.624;2022-09-21T04:22:56;6.63;;;3.70;;
7195;SDS011;3639;51.308;5.624;2022-09-21T04:25:22;5.47;;;3.30;;
7195;SDS011;3639;51.308;5.624;2022-09-21T04:27:47;4.20;;;3.53;;
7195;SDS011;3639;51.308;5.624;2022-09-21T04:30:14;4.60;;;3.63;;
7195;SDS011;3639;51.308;5.624;2022-09-21T04:32:40;3.63;;;3.33;;
7195;SDS011;3639;51.308;5.624;2022-09-21T04:35:06;5.60;;;3.67;;
7195;SDS011;3639;51.308;5.624;2022-09-21T04:37:32;7.30;;;3.10;;
7195;SDS011;3639;51.308;5.624;2022-09-21T04:39:58;4.97;;;3.63;;
7195;SDS011;3639;51.308;5.624;2022-09-21T04:42:24;4.07;;;3.00;;
7195;SDS011;3639;51.308;5.624;2022-09-21T04:44:51;7.40;;;3.07;;
7195;SDS011;3639;51.308;5.624;2022-09-21T04:47:17;4.47;;;3.43;;
7195;SDS011;3639;51.308;5.624;2022-09-21T04:49:43;4.57;;;3.50;;
7195;SDS011;3639;51.308;5.624;2022-09-21T04:52:09;5.13;;;3.20;;
7195;SDS011;3639;51.308;5.624;2022-09-21T04:54:34;4.60;;;3.10;;
7195;SDS011;3639;51.308;5.624;2022-09-21T04:57:00;3.33;;;3.03;;
7195;SDS011;3639;51.308;5.624;2022-09-21T04:59:25;5.23;;;2.93;;
7195;SDS011;3639;51.308;5.624;2022-09-21T05:01:51;4.17;;;3.43;;
7195;SDS011;3639;51.308;5.624;2022-09-21T05:04:17;4.67;;;3.17;;
7195;SDS011;3639;51.308;5.624;2022-09-21T05:06:42;6.73;;;3.40;;
7195;SDS011;3639;51.308;5.624;2022-09-21T05:09:08;4.70;;;3.07;;
7195;SDS011;3639;51.308;5.624;2022-09-21T05:11:52;4.40;;;2.83;;
7195;SDS011;3639;51.308;5.624;2022-09-21T05:14:18;5.53;;;3.60;;
7195;SDS011;3639;51.308;5.624;2022-09-21T05:16:43;3.27;;;2.90;;
7195;SDS011;3639;51.308;5.624;2022-09-21T05:19:11;4.73;;;3.40;;
7195;SDS011;3639;51.308;5.624;2022-09-21T05:21:37;3.33;;;3.03;;
7195;SDS011;3639;51.308;5.624;2022-09-21T05:24:03;2.80;;;2.60;;
7195;SDS011;3639;51.308;5.624;2022-09-21T05:26:29;3.43;;;3.10;;
7195;SDS011;3639;51.308;5.624;2022-09-21T05:28:54;3.93;;;3.53;;
7195;SDS011;3639;51.308;5.624;2022-09-21T05:31:31;4.03;;;3.63;;
7195;SDS011;3639;51.308;5.624;2022-09-21T05:40:05;3.43;;;3.13;;
7195;SDS011;3639;51.308;5.624;2022-09-21T05:42:31;10.43;;;3.50;;
7195;SDS011;3639;51.308;5.624;2022-09-21T05:44:57;6.87;;;3.33;;
7195;SDS011;3639;51.308;5.624;2022-09-21T05:47:25;5.17;;;3.53;;
7195;SDS011;3639;51.308;5.624;2022-09-21T05:52:45;3.47;;;3.03;;
7195;SDS011;3639;51.308;5.624;2022-09-21T05:56:12;5.40;;;3.17;;
7195;SDS011;3639;51.308;5.624;2022-09-21T06:03:57;4.63;;;3.53;;
7195;SDS011;3639;51.308;5.624;2022-09-21T06:06:24;3.90;;;3.60;;
7195;SDS011;3639;51.308;5.624;2022-09-21T06:08:50;4.10;;;3.67;;
7195;SDS011;3639;51.308;5.624;2022-09-21T06:11:16;4.10;;;3.37;;
7195;SDS011;3639;51.308;5.624;2022-09-21T06:13:42;4.43;;;3.70;;
7195;SDS011;3639;51.308;5.624;2022-09-21T06:16:07;4.80;;;4.30;;
7195;SDS011;3639;51.308;5.624;2022-09-21T06:18:39;5.83;;;3.80;;
7195;SDS011;3639;51.308;5.624;2022-09-21T06:21:06;4.73;;;4.10;;
7195;SDS011;3639;51.308;5.624;2022-09-21T06:23:33;6.20;;;3.83;;
7195;SDS011;3639;51.308;5.624;2022-09-21T06:25:59;5.20;;;4.23;;
7195;SDS011;3639;51.308;5.624;2022-09-21T06:28:25;5.27;;;3.80;;
7195;SDS011;3639;51.308;5.624;2022-09-21T06:30:52;4.60;;;4.00;;
7195;SDS011;3639;51.308;5.624;2022-09-21T06:33:19;6.87;;;4.47;;
7195;SDS011;3639;51.308;5.624;2022-09-21T06:35:51;9.13;;;4.20;;
7195;SDS011;3639;51.308;5.624;2022-09-21T06:38:18;7.13;;;4.60;;
7195;SDS011;3639;51.308;5.624;2022-09-21T06:40:44;6.30;;;4.23;;
7195;SDS011;3639;51.308;5.624;2022-09-21T06:43:09;5.83;;;4.03;;
7195;SDS011;3639;51.308;5.624;2022-09-21T06:45:35;11.10;;;4.43;;
7195;SDS011;3639;51.308;5.624;2022-09-21T06:48:00;6.00;;;4.33;;
7195;SDS011;3639;51.308;5.624;2022-09-21T06:50:26;6.10;;;3.90;;
7195;SDS011;3639;51.308;5.624;2022-09-21T06:52:52;8.40;;;4.67;;
7195;SDS011;3639;51.308;5.624;2022-09-21T06:55:18;12.90;;;4.63;;
7195;SDS011;3639;51.308;5.624;2022-09-21T06:57:44;5.23;;;3.80;;
7195;SDS011;3639;51.308;5.624;2022-09-21T07:00:10;8.30;;;5.00;;
7195;SDS011;3639;51.308;5.624;2022-09-21T07:02:37;8.37;;;4.33;;
7195;SDS011;3639;51.308;5.624;2022-09-21T07:05:06;5.00;;;4.00;;
7195;SDS011;3639;51.308;5.624;2022-09-21T07:07:32;6.53;;;4.63;;
7195;SDS011;3639;51.308;5.624;2022-09-21T07:09:58;6.27;;;4.43;;
7195;SDS011;3639;51.308;5.624;2022-09-21T07:12:25;6.70;;;4.27;;
7195;SDS011;3639;51.308;5.624;2022-09-21T07:14:59;5.67;;;4.33;;
7195;SDS011;3639;51.308;5.624;2022-09-21T07:17:29;6.50;;;4.83;;
7195;SDS011;3639;51.308;5.624;2022-09-21T07:19:56;7.90;;;5.20;;
7195;SDS011;3639;51.308;5.624;2022-09-21T07:22:21;6.93;;;5.23;;
7195;SDS011;3639;51.308;5.624;2022-09-21T07:24:48;10.03;;;5.27;;
7195;SDS011;3639;51.308;5.624;2022-09-21T07:27:14;6.50;;;5.17;;
7195;SDS011;3639;51.308;5.624;2022-09-21T07:29:39;9.43;;;5.57;;
7195;SDS011;3639;51.308;5.624;2022-09-21T07:32:06;10.13;;;5.87;;
7195;SDS011;3639;51.308;5.624;2022-09-21T07:34:35;7.67;;;5.10;;
7195;SDS011;3639;51.308;5.624;2022-09-21T07:37:03;7.43;;;5.73;;
7195;SDS011;3639;51.308;5.624;2022-09-21T07:39:29;7.77;;;5.47;;
7195;SDS011;3639;51.308;5.624;2022-09-21T07:41:55;7.63;;;5.90;;
7195;SDS011;3639;51.308;5.624;2022-09-21T07:44:22;12.13;;;6.17;;
7195;SDS011;3639;51.308;5.624;2022-09-21T07:46:49;7.20;;;5.37;;
7195;SDS011;3639;51.308;5.624;2022-09-21T07:49:15;8.67;;;5.77;;
7195;SDS011;3639;51.308;5.624;2022-09-21T07:51:40;8.23;;;5.70;;
7195;SDS011;3639;51.308;5.624;2022-09-21T07:54:09;10.77;;;5.80;;
7195;SDS011;3639;51.308;5.624;2022-09-21T07:56:36;8.70;;;5.70;;
7195;SDS011;3639;51.308;5.624;2022-09-21T07:59:02;9.20;;;5.37;;
7195;SDS011;3639;51.308;5.624;2022-09-21T08:01:35;8.43;;;5.37;;
7195;SDS011;3639;51.308;5.624;2022-09-21T08:04:03;6.93;;;5.13;;
7195;SDS011;3639;51.308;5.624;2022-09-21T08:06:31;7.33;;;5.07;;
7195;SDS011;3639;51.308;5.624;2022-09-21T08:08:59;10.23;;;4.77;;
7195;SDS011;3639;51.308;5.624;2022-09-21T08:11:28;6.57;;;4.77;;
7195;SDS011;3639;51.308;5.624;2022-09-21T08:13:59;9.63;;;5.50;;
7195;SDS011;3639;51.308;5.624;2022-09-21T08:16:26;6.63;;;4.50;;
7195;SDS011;3639;51.308;5.624;2022-09-21T08:18:53;7.40;;;4.53;;
7195;SDS011;3639;51.308;5.624;2022-09-21T08:21:19;6.90;;;4.97;;
7195;SDS011;3639;51.308;5.624;2022-09-21T08:23:45;4.53;;;3.50;;
7195;SDS011;3639;51.308;5.624;2022-09-21T08:26:13;7.23;;;3.93;;
7195;SDS011;3639;51.308;5.624;2022-09-21T08:28:47;4.90;;;3.40;;
7195;SDS011;3639;51.308;5.624;2022-09-21T08:31:14;4.47;;;3.13;;
7195;SDS011;3639;51.308;5.624;2022-09-21T08:33:41;3.40;;;3.10;;
7195;SDS011;3639;51.308;5.624;2022-09-21T08:36:07;5.87;;;3.83;;
7195;SDS011;3639;51.308;5.624;2022-09-21T08:38:35;4.73;;;3.30;;
7195;SDS011;3639;51.308;5.624;2022-09-21T08:43:48;7.67;;;2.83;;
7195;SDS011;3639;51.308;5.624;2022-09-21T08:46:25;7.10;;;2.83;;
7195;SDS011;3639;51.308;5.624;2022-09-21T08:48:57;5.63;;;3.20;;
7195;SDS011;3639;51.308;5.624;2022-09-21T08:51:32;5.00;;;2.80;;
7195;SDS011;3639;51.308;5.624;2022-09-21T08:54:09;4.63;;;2.77;;
7195;SDS011;3639;51.308;5.624;2022-09-21T08:56:43;3.17;;;2.40;;
7195;SDS011;3639;51.308;5.624;2022-09-21T08:59:10;4.17;;;2.33;;
7195;SDS011;3639;51.308;5.624;2022-09-21T09:12:20;3.57;;;2.13;;
7195;SDS011;3639;51.308;5.624;2022-09-21T09:15:04;2.40;;;2.20;;
7195;SDS011;3639;51.308;5.624;2022-09-21T09:23:17;2.30;;;2.10;;
7195;SDS011;3639;51.308;5.624;2022-09-21T09:25:48;3.60;;;2.30;;
7195;SDS011;3639;51.308;5.624;2022-09-21T09:28:19;3.13;;;2.33;;
7195;SDS011;3639;51.308;5.624;2022-09-21T09:31:23;3.47;;;2.40;;
7195;SDS011;3639;51.308;5.624;2022-09-21T09:33:54;2.27;;;1.80;;
7195;SDS011;3639;51.308;5.624;2022-09-21T09:36:24;2.93;;;1.63;;
7195;SDS011;3639;51.308;5.624;2022-09-21T09:38:57;5.67;;;2.43;;
7195;SDS011;3639;51.308;5.624;2022-09-21T09:47:25;2.10;;;1.70;;
7195;SDS011;3639;51.308;5.624;2022-09-21T09:52:33;1.83;;;1.70;;
7195;SDS011;3639;51.308;5.624;2022-09-21T09:54:59;1.87;;;1.63;;
7195;SDS011;3639;51.308;5.624;2022-09-21T09:57:35;4.40;;;1.83;;
7195;SDS011;3639;51.308;5.624;2022-09-21T10:00:03;2.80;;;1.90;;
7195;SDS011;3639;51.308;5.624;2022-09-21T10:02:44;2.00;;;1.80;;
7195;SDS011;3639;51.308;5.624;2022-09-21T10:05:24;4.27;;;1.83;;
7195;SDS011;3639;51.308;5.624;2022-09-21T10:08:01;1.70;;;1.20;;
7195;SDS011;3639;51.308;5.624;2022-09-21T10:12:54;2.83;;;1.60;;
7195;SDS011;3639;51.308;5.624;2022-09-21T10:15:25;3.60;;;1.70;;
7195;SDS011;3639;51.308;5.624;2022-09-21T10:18:02;2.77;;;1.37;;
7195;SDS011;3639;51.308;5.624;2022-09-21T10:21:00;3.03;;;1.80;;
7195;SDS011;3639;51.308;5.624;2022-09-21T10:23:30;4.40;;;2.13;;
7195;SDS011;3639;51.308;5.624;2022-09-21T10:28:25;3.37;;;1.60;;
7195;SDS011;3639;51.308;5.624;2022-09-21T10:31:08;1.47;;;1.37;;
7195;SDS011;3639;51.308;5.624;2022-09-21T10:33:42;3.33;;;1.57;;
7195;SDS011;3639;51.308;5.624;2022-09-21T10:45:12;2.67;;;1.77;;
7195;SDS011;3639;51.308;5.624;2022-09-21T10:47:36;2.47;;;1.40;;
7195;SDS011;3639;51.308;5.624;2022-09-21T10:52:55;1.87;;;1.33;;
7195;SDS011;3639;51.308;5.624;2022-09-21T10:55:38;3.77;;;1.40;;
7195;SDS011;3639;51.308;5.624;2022-09-21T10:58:09;1.63;;;1.17;;
7195;SDS011;3639;51.308;5.624;2022-09-21T11:00:46;5.80;;;1.33;;
7195;SDS011;3639;51.308;5.624;2022-09-21T11:06:04;1.93;;;1.43;;
7195;SDS011;3639;51.308;5.624;2022-09-21T11:08:58;2.30;;;1.73;;
7195;SDS011;3639;51.308;5.624;2022-09-21T11:11:41;1.63;;;1.40;;
7195;SDS011;3639;51.308;5.624;2022-09-21T11:17:03;2.23;;;1.30;;
7195;SDS011;3639;51.308;5.624;2022-09-21T11:19:47;1.40;;;1.30;;
7195;SDS011;3639;51.308;5.624;2022-09-21T11:27:36;1.40;;;1.30;;
7195;SDS011;3639;51.308;5.624;2022-09-21T11:30:14;3.57;;;1.87;;
7195;SDS011;3639;51.308;5.624;2022-09-21T11:36:18;2.30;;;1.40;;
7195;SDS011;3639;51.308;5.624;2022-09-21T11:44:18;1.77;;;1.27;;
7195;SDS011;3639;51.308;5.624;2022-09-21T11:49:43;5.30;;;1.70;;
7195;SDS011;3639;51.308;5.624;2022-09-21T11:55:21;2.00;;;1.33;;
7195;SDS011;3639;51.308;5.624;2022-09-21T12:09:09;2.47;;;1.53;;
7195;SDS011;3639;51.308;5.624;2022-09-21T12:11:41;1.90;;;1.40;;
7195;SDS011;3639;51.308;5.624;2022-09-21T12:19:45;7.20;;;4.23;;
7195;SDS011;3639;51.308;5.624;2022-09-21T12:25:03;6.87;;;2.00;;
7195;SDS011;3639;51.308;5.624;2022-09-21T12:27:38;2.13;;;1.60;;
7195;SDS011;3639;51.308;5.624;2022-09-21T12:40:49;2.77;;;1.90;;
7195;SDS011;3639;51.308;5.624;2022-09-21T12:46:01;3.63;;;1.60;;
7195;SDS011;3639;51.308;5.624;2022-09-21T12:48:32;2.10;;;1.57;;
7195;SDS011;3639;51.308;5.624;2022-09-21T12:51:11;6.40;;;1.80;;
7195;SDS011;3639;51.308;5.624;2022-09-21T12:53:41;2.43;;;1.50;;
7195;SDS011;3639;51.308;5.624;2022-09-21T13:05:03;2.20;;;1.60;;
7195;SDS011;3639;51.308;5.624;2022-09-21T13:09:57;1.83;;;1.63;;
7195;SDS011;3639;51.308;5.624;2022-09-21T13:12:30;1.80;;;1.40;;
7195;SDS011;3639;51.308;5.624;2022-09-21T13:15:10;2.40;;;1.90;;
7195;SDS011;3639;51.308;5.624;2022-09-21T13:17:39;2.00;;;1.50;;
7195;SDS011;3639;51.308;5.624;2022-09-21T13:20:15;1.90;;;1.30;;
7195;SDS011;3639;51.308;5.624;2022-09-21T13:22:43;1.90;;;1.60;;
7195;SDS011;3639;51.308;5.624;2022-09-21T13:25:18;3.17;;;1.53;;
7195;SDS011;3639;51.308;5.624;2022-09-21T13:30:44;1.50;;;1.40;;
7195;SDS011;3639;51.308;5.624;2022-09-21T13:33:31;3.17;;;1.63;;
7195;SDS011;3639;51.308;5.624;2022-09-21T13:36:48;2.23;;;1.40;;
7195;SDS011;3639;51.308;5.624;2022-09-21T13:39:02;3.27;;;1.43;;
7195;SDS011;3639;51.308;5.624;2022-09-21T13:41:29;2.63;;;1.67;;
7195;SDS011;3639;51.308;5.624;2022-09-21T13:47:06;1.57;;;1.40;;
7195;SDS011;3639;51.308;5.624;2022-09-21T13:57:00;4.70;;;1.80;;
7195;SDS011;3639;51.308;5.624;2022-09-21T13:59:27;2.63;;;2.00;;
7195;SDS011;3639;51.308;5.624;2022-09-21T14:01:53;2.33;;;2.00;;
7195;SDS011;3639;51.308;5.624;2022-09-21T14:04:24;2.97;;;2.60;;
7195;SDS011;3639;51.308;5.624;2022-09-21T14:06:52;2.50;;;2.27;;
7195;SDS011;3639;51.308;5.624;2022-09-21T14:09:26;3.70;;;2.43;;
7195;SDS011;3639;51.308;5.624;2022-09-21T14:11:56;4.50;;;2.30;;
7195;SDS011;3639;51.308;5.624;2022-09-21T14:16:59;4.00;;;2.47;;
7195;SDS011;3639;51.308;5.624;2022-09-21T14:29:54;2.27;;;2.07;;
7195;SDS011;3639;51.308;5.624;2022-09-21T14:32:33;2.63;;;2.03;;
7195;SDS011;3639;51.308;5.624;2022-09-21T14:35:06;4.67;;;2.30;;
7195;SDS011;3639;51.308;5.624;2022-09-21T14:38:00;3.13;;;2.13;;
7195;SDS011;3639;51.308;5.624;2022-09-21T14:40:36;3.40;;;1.80;;
7195;SDS011;3639;51.308;5.624;2022-09-21T14:43:10;2.80;;;2.00;;
7195;SDS011;3639;51.308;5.624;2022-09-21T14:56:23;4.00;;;1.60;;
7195;SDS011;3639;51.308;5.624;2022-09-21T15:07:24;3.87;;;1.90;;
7195;SDS011;3639;51.308;5.624;2022-09-21T15:10:21;2.57;;;1.63;;
7195;SDS011;3639;51.308;5.624;2022-09-21T15:13:23;4.03;;;2.10;;
7195;SDS011;3639;51.308;5.624;2022-09-21T15:19:26;2.43;;;1.80;;
7195;SDS011;3639;51.308;5.624;2022-09-21T15:21:55;1.70;;;1.60;;
7195;SDS011;3639;51.308;5.624;2022-09-21T15:24:35;3.80;;;2.53;;
7195;SDS011;3639;51.308;5.624;2022-09-21T15:27:08;3.17;;;2.30;;
7195;SDS011;3639;51.308;5.624;2022-09-21T15:29:38;2.03;;;1.83;;
7195;SDS011;3639;51.308;5.624;2022-09-21T15:32:23;2.53;;;1.90;;
7195;SDS011;3639;51.308;5.624;2022-09-21T15:35:04;2.53;;;2.00;;
7195;SDS011;3639;51.308;5.624;2022-09-21T15:37:39;2.13;;;1.80;;
7195;SDS011;3639;51.308;5.624;2022-09-21T15:40:13;3.27;;;2.73;;
7195;SDS011;3639;51.308;5.624;2022-09-21T15:42:56;2.77;;;2.33;;
7195;SDS011;3639;51.308;5.624;2022-09-21T15:45:25;3.33;;;2.20;;
7195;SDS011;3639;51.308;5.624;2022-09-21T15:48:09;2.67;;;2.17;;
7195;SDS011;3639;51.308;5.624;2022-09-21T15:50:37;3.83;;;2.10;;
7195;SDS011;3639;51.308;5.624;2022-09-21T15:53:08;3.30;;;2.53;;
7195;SDS011;3639;51.308;5.624;2022-09-21T15:55:47;2.80;;;2.53;;
7195;SDS011;3639;51.308;5.624;2022-09-21T15:58:20;3.73;;;2.50;;
7195;SDS011;3639;51.308;5.624;2022-09-21T16:01:01;3.27;;;2.97;;
7195;SDS011;3639;51.308;5.624;2022-09-21T16:03:38;3.77;;;2.60;;
7195;SDS011;3639;51.308;5.624;2022-09-21T16:08:46;3.40;;;2.47;;
7195;SDS011;3639;51.308;5.624;2022-09-21T16:11:16;2.80;;;2.30;;
7195;SDS011;3639;51.308;5.624;2022-09-21T16:20:02;2.27;;;1.70;;
7195;SDS011;3639;51.308;5.624;2022-09-21T16:22:30;2.80;;;1.97;;
7195;SDS011;3639;51.308;5.624;2022-09-21T16:25:00;5.43;;;1.97;;
7195;SDS011;3639;51.308;5.624;2022-09-21T16:27:28;1.57;;;1.47;;
7195;SDS011;3639;51.308;5.624;2022-09-21T16:29:56;1.83;;;1.67;;
7195;SDS011;3639;51.308;5.624;2022-09-21T16:32:27;2.43;;;1.67;;
7195;SDS011;3639;51.308;5.624;2022-09-21T16:37:51;1.70;;;1.57;;
7195;SDS011;3639;51.308;5.624;2022-09-21T16:40:21;3.50;;;2.40;;
7195;SDS011;3639;51.308;5.624;2022-09-21T16:42:47;3.50;;;2.03;;
7195;SDS011;3639;51.308;5.624;2022-09-21T16:45:15;2.57;;;2.37;;
7195;SDS011;3639;51.308;5.624;2022-09-21T16:47:48;3.93;;;2.80;;
7195;SDS011;3639;51.308;5.624;2022-09-21T16:50:14;4.37;;;3.10;;
7195;SDS011;3639;51.308;5.624;2022-09-21T16:52:42;3.03;;;2.13;;
7195;SDS011;3639;51.308;5.624;2022-09-21T16:55:12;2.70;;;2.00;;
7195;SDS011;3639;51.308;5.624;2022-09-21T16:57:39;1.83;;;1.63;;
7195;SDS011;3639;51.308;5.624;2022-09-21T17:00:10;3.23;;;2.03;;
7195;SDS011;3639;51.308;5.624;2022-09-21T17:02:37;2.63;;;1.73;;
7195;SDS011;3639;51.308;5.624;2022-09-21T17:05:06;3.53;;;1.87;;
7195;SDS011;3639;51.308;5.624;2022-09-21T17:07:33;2.37;;;2.07;;
7195;SDS011;3639;51.308;5.624;2022-09-21T17:09:58;3.10;;;1.80;;
7195;SDS011;3639;51.308;5.624;2022-09-21T17:12:25;2.80;;;2.20;;
7195;SDS011;3639;51.308;5.624;2022-09-21T17:14:52;2.87;;;1.70;;
7195;SDS011;3639;51.308;5.624;2022-09-21T17:17:22;2.60;;;1.90;;
7195;SDS011;3639;51.308;5.624;2022-09-21T17:19:49;2.63;;;1.73;;
7195;SDS011;3639;51.308;5.624;2022-09-21T17:22:16;2.73;;;2.00;;
7195;SDS011;3639;51.308;5.624;2022-09-21T17:24:43;1.90;;;1.70;;
7195;SDS011;3639;51.308;5.624;2022-09-21T17:27:12;3.50;;;2.10;;
7195;SDS011;3639;51.308;5.624;2022-09-21T17:29:41;4.57;;;1.93;;
7195;SDS011;3639;51.308;5.624;2022-09-21T17:32:13;4.63;;;2.10;;
7195;SDS011;3639;51.308;5.624;2022-09-21T17:34:40;2.27;;;2.03;;
7195;SDS011;3639;51.308;5.624;2022-09-21T17:37:06;2.47;;;2.27;;
7195;SDS011;3639;51.308;5.624;2022-09-21T17:39:35;4.73;;;2.00;;
7195;SDS011;3639;51.308;5.624;2022-09-21T17:42:02;2.67;;;2.40;;
7195;SDS011;3639;51.308;5.624;2022-09-21T17:49:52;4.63;;;2.23;;
7195;SDS011;3639;51.308;5.624;2022-09-21T17:52:19;3.37;;;2.40;;
7195;SDS011;3639;51.308;5.624;2022-09-21T17:55:05;4.00;;;2.77;;
7195;SDS011;3639;51.308;5.624;2022-09-21T18:00:48;3.17;;;2.60;;
7195;SDS011;3639;51.308;5.624;2022-09-21T18:03:29;5.90;;;2.77;;
7195;SDS011;3639;51.308;5.624;2022-09-21T18:05:59;3.07;;;2.87;;
7195;SDS011;3639;51.308;5.624;2022-09-21T18:08:29;6.70;;;2.70;;
7195;SDS011;3639;51.308;5.624;2022-09-21T18:22:21;6.33;;;2.90;;
7195;SDS011;3639;51.308;5.624;2022-09-21T18:25:10;3.00;;;2.70;;
7195;SDS011;3639;51.308;5.624;2022-09-21T18:27:42;2.40;;;2.20;;
7195;SDS011;3639;51.308;5.624;2022-09-21T18:30:12;4.27;;;2.73;;
7195;SDS011;3639;51.308;5.624;2022-09-21T18:33:01;2.70;;;2.50;;
7195;SDS011;3639;51.308;5.624;2022-09-21T18:35:36;3.50;;;2.90;;
7195;SDS011;3639;51.308;5.624;2022-09-21T18:51:55;4.83;;;3.23;;
7195;SDS011;3639;51.308;5.624;2022-09-21T18:54:37;5.20;;;3.83;;
7195;SDS011;3639;51.308;5.624;2022-09-21T18:57:11;3.70;;;3.40;;
7195;SDS011;3639;51.308;5.624;2022-09-21T18:59:38;4.40;;;2.83;;
7195;SDS011;3639;51.308;5.624;2022-09-21T19:02:14;4.90;;;3.53;;
7195;SDS011;3639;51.308;5.624;2022-09-21T19:04:43;5.10;;;3.43;;
7195;SDS011;3639;51.308;5.624;2022-09-21T19:07:16;8.23;;;4.37;;
7195;SDS011;3639;51.308;5.624;2022-09-21T19:10:04;4.20;;;3.57;;
7195;SDS011;3639;51.308;5.624;2022-09-21T19:18:15;4.60;;;3.47;;
7195;SDS011;3639;51.308;5.624;2022-09-21T19:28:53;6.97;;;4.40;;
7195;SDS011;3639;51.308;5.624;2022-09-21T19:31:34;5.53;;;4.03;;
7195;SDS011;3639;51.308;5.624;2022-09-21T19:34:01;8.23;;;4.67;;
7195;SDS011;3639;51.308;5.624;2022-09-21T19:36:37;7.93;;;4.10;;
7195;SDS011;3639;51.308;5.624;2022-09-21T19:39:03;13.57;;;4.17;;
7195;SDS011;3639;51.308;5.624;2022-09-21T19:44:16;6.47;;;4.33;;
7195;SDS011;3639;51.308;5.624;2022-09-21T19:47:09;7.53;;;4.30;;
7195;SDS011;3639;51.308;5.624;2022-09-21T19:49:57;7.30;;;4.53;;
7195;SDS011;3639;51.308;5.624;2022-09-21T19:52:41;5.63;;;4.63;;
7195;SDS011;3639;51.308;5.624;2022-09-21T19:58:03;6.43;;;5.00;;
7195;SDS011;3639;51.308;5.624;2022-09-21T20:00:52;4.93;;;4.43;;
7195;SDS011;3639;51.308;5.624;2022-09-21T20:03:25;8.40;;;5.07;;